Preview of NWS' New Version of Forecast
This preview is not operational and should not be used for support decisions.

Terminal Aerodrome Forecast (TAF)

Issued by National Weather Service (NWS)

                            
822 
FTUS42 KKEY 252039 AAA
TAFEYW
TAF AMD
KEYW 252039Z 2521/2618 09008KT P6SM SKC
     FM260300 03005KT P6SM SKC
     FM261000 01005KT P6SM SCT020
     FM261400 35005KT P6SM SKC=